x

West Superior - 30nm Ne Of Outer Island, Wi (45006) Wave Buoy

6:50pm - Fri 26th May 2017 All times are CDT. -5 hours from GMT.

  • Sig Wave height 0.3ft
  • Average Period 2s
  • Wind
    9mph, 11mph gusts
  • Sea Temp 37°f
  • Air Temp 43°f
  • Sea Pressure 1007.7mb
  • West Superior - 30nm Ne Of Outer Island, Wi
  • West Superior - 30nm Ne Of Outer Island, Wi

More Historic Weather Station data

Upgrade to MSW Pro to gain access to the past 30 days of data for over 8000 Wavebouys and Weather Stations around the globe.

Join Pro

Comparision Forecast

View Surf forecast
   
Fri 05/26 6:50pm 0.3ft  -  2s 9 11 mph 1007.7mb 37f 43f
5:50pm 0.3ft  -  2s 11 11 mph 1007.6mb 37f 42f
4:50pm 0.3ft  -  3s 11 13 mph 1007.7mb 37f 41f
3:50pm 0.3ft  -  3s 9 9 mph 1008.1mb 37f 40f
2:50pm 0.3ft  -  3s 7 9 mph 1008.5mb 37f 40f
1:50pm 0.3ft  -  3s 9 11 mph 1008.7mb 37f 43f
12:50pm 0.3ft  -  3s 9 9 mph 1008.7mb 37f 44f
11:50am 0.3ft  -  3s 9 9 mph 1008.7mb 37f 44f
10:50am 0.7ft  -  3s 2 4 mph 1009.2mb 37f 43f
9:50am 0.7ft  -  3s 4 7 mph 1009mb 37f 42f
8:50am 0.7ft  -  3s 7 9 mph 1008.8mb 37f 41f
7:50am 0.7ft  -  3s 2 4 mph 1008.8mb 37f 43f
6:50am 0.7ft  -  3s 4 7 mph 1008.9mb 37f 41f
5:50am 0.7ft  -  3s 2 2 mph 1008.6mb 37f 43f
4:50am 0.7ft  -  3s 4 7 mph 1008mb 37f 43f
3:50am 0.7ft  -  3s 9 9 mph 1007.8mb 37f 43f
2:50am 0.7ft  -  3s 9 11 mph 1007.7mb 37f 43f
1:50am 0.7ft  -  3s 11 13 mph 1007.4mb 37f 44f
12:50am 0.7ft  -  3s 9 11 mph 1007.7mb 37f 42f
Thu 05/25 11:50pm 0.7ft  -  3s 9 11 mph 1007.4mb 37f 42f
10:50pm 0.7ft  -  3s 11 13 mph 1007.5mb 37f 42f
9:50pm 0.7ft  -  3s 11 13 mph 1007.4mb 37f 42f
8:50pm 0.7ft  -  2s 11 11 mph 1006.9mb 37f 42f
7:50pm 0.7ft  -  3s 11 11 mph 1006.6mb 37f 42f
6:50pm 0.7ft  -  2s 11 13 mph 1006.2mb 37f 42f
5:50pm 0.3ft  -  2s 11 13 mph 1006.4mb 37f 42f
4:50pm 0.3ft  -  3s 11 13 mph 1006.8mb 37f 41f
3:50pm 0.3ft  -  3s 9 11 mph 1007.3mb 37f 40f
2:50pm 0.3ft  -  3s 9 9 mph 1007.7mb 37f 40f
1:50pm 0.3ft  -  3s 7 9 mph 1008.1mb 38f 39f
12:50pm 0.3ft  -  3s 7 9 mph 1008.2mb 38f 40f
11:50am 0.3ft  -  3s 4 7 mph 1008.5mb 38f 40f
10:50am 0.3ft  -  3s 7 7 mph 1008.5mb 37f 40f
9:50am 0.3ft  -  3s 7 7 mph 1009mb 37f 40f
8:50am 0.3ft  -  3s 7 7 mph 1008.9mb 37f 40f
7:50am 0.3ft  -  3s 7 9 mph 1008.9mb 37f 41f
6:50am 0.3ft  -  3s 7 9 mph 1008.8mb 37f 40f
5:50am 0.3ft  -  3s 9 9 mph 1008.7mb 37f 40f
4:50am 0.7ft  -  3s 7 9 mph 1008.6mb 37f 39f
3:50am 0.7ft  -  3s 7 9 mph 1008.5mb 37f 40f
2:50am 0.7ft  -  3s 7 9 mph 1008.7mb 37f 39f
1:50am 0.7ft  -  3s 7 7 mph 1008.5mb 37f 40f
12:50am 0.7ft  -  3s 7 9 mph 1008.5mb 37f 40f
Wed 05/24 11:50pm 1ft 4s 3s 9 11 mph 1008.6mb 37f 40f
10:50pm 1ft 3s 3s 7 9 mph 1008.8mb 37f 40f
9:50pm 1ft 4s 3s 9 9 mph 1008.8mb 37f 41f
8:50pm 1ft 4s 3s 11 11 mph 1008.2mb 37f 40f
7:50pm 1ft 4s 4s 7 9 mph 1008.8mb 37f 40f
6:50pm 1.3ft 4s 3s 9 9 mph 1008.8mb 37f 41f
5:50pm 1.3ft 4s 3s 7 7 mph 1008.9mb 37f 40f
4:50pm 1.3ft 4s 3s 7 7 mph 1009.1mb 37f 40f
3:50pm 1.3ft 4s 3s 7 9 mph 1009.2mb 37f 40f
2:50pm 1.3ft 3s 3s 9 11 mph 1009.8mb 37f 40f
1:50pm 1.3ft 3s 3s 9 9 mph 1010.1mb 37f 39f
12:50pm 1.3ft 3s 3s 13 16 mph 1009.9mb 37f 40f
11:50am 1.3ft 3s 3s 13 16 mph 1010.2mb 37f 40f
10:50am 0.7ft  -  3s 13 16 mph 1010.5mb 37f 40f
9:50am 0.7ft  -  3s 11 13 mph 1010.8mb 37f 40f
8:50am 0.7ft  -  3s 9 11 mph 1010.8mb 37f 40f
7:50am 0.7ft  -  3s 9 11 mph 1010.7mb 37f 41f
6:50am 0.7ft  -  3s 7 9 mph 1010.6mb 37f 40f
5:50am 0.3ft  -  3s 7 9 mph 1010.8mb 37f 40f
4:50am 0.7ft  -  3s 11 11 mph 1010.7mb 37f 40f
3:50am 0.7ft  -  3s 11 13 mph 1010.8mb 37f 40f
2:50am 0.3ft  -  3s 11 13 mph 1010.9mb 37f 41f
1:50am 0.3ft  -  3s 13 13 mph 1011.2mb 37f 41f
12:50am 0.3ft  -  3s 7 9 mph 1011.5mb 37f 41f
Tue 05/23 11:50pm 0.3ft  -  3s 7 7 mph 1012.2mb 37f 40f
10:50pm 0.3ft  -  3s 7 9 mph 1012.5mb 37f 40f
9:50pm 0.3ft  -  3s 7 9 mph 1012.7mb 37f 40f
8:50pm 0.3ft  -  3s 7 7 mph 1012.8mb 37f 41f
7:50pm 0.3ft  -  3s 4 7 mph 1012.9mb 37f 42f
6:50pm 0.3ft  -   -  9 11 mph 1012.6mb 37f 43f
5:50pm 0.3ft  -  3s 4 7 mph 1012.7mb 37f 41f
4:50pm 0.3ft  -  3s 11 11 mph 1012.5mb 37f 41f
3:50pm 0.3ft  -  3s 9 9 mph 1012.6mb 37f 40f
2:50pm 0.3ft  -  3s 4 7 mph 1012.8mb 37f 40f
1:50pm 0.3ft  -  3s 7 9 mph 1013mb 37f 39f
12:50pm 0.3ft  -  3s 9 9 mph 1012.9mb 37f 40f
11:50am 0.3ft  -  2s 7 9 mph 1013.1mb 37f 40f
10:50am 0.3ft  -  2s 7 7 mph 1013mb 37f 40f
9:50am 0.3ft  -  3s 9 9 mph 1012.6mb 37f 39f
8:50am 0.3ft  -  3s 9 9 mph 1012.3mb 37f 40f
7:50am 0.3ft  -  3s 11 11 mph 1011.7mb 37f 41f
6:50am 0.3ft  -  3s 11 11 mph 1011mb 37f 41f
5:50am 0.3ft  -  3s 4 7 mph 1010.9mb 36f 40f
4:50am 0.3ft  -  3s 4 4 mph 1010.3mb 37f 40f
3:50am 0.3ft  -  3s 2 2 mph 1010.1mb 37f 41f
2:50am 0.7ft  -  3s 4 4 mph 1010.2mb 37f 40f
1:50am 0.7ft  -  3s 4 4 mph 1010.3mb 37f 40f